Data for 12/07/2009

Time Sea-Level Adjusted Pressure Absolute Pressure Temperature Relative Humidity Dew Point   
(mb) (inHg) (mb) (inHg) (C) (F) (%) (C) (F)
00:05 1018 30.06 847 25.01 -21 -5.8 72 -24.9 -12.7
00:10 1018 30.06 847 25.01 -21 -5.9 71 -25 -12.9
00:15 1017 30.03 847 25.01 -21 -5.8 71 -25 -13
00:20 1017 30.03 847 25.01 -21.1 -5.9 70 -25.1 -13.2
00:25 1017 30.03 847 25.01 -21 -5.8 70 -25.1 -13.2
00:30 1017 30.03 846 24.98 -21 -5.9 70 -25.2 -13.3
00:35 1017 30.03 846 24.98 -21.1 -5.9 70 -25.2 -13.4
00:40 1017 30.03 846 24.98 -21.1 -5.9 70 -25.2 -13.4
00:45 1017 30.03 846 24.98 -21.1 -6 70 -25.3 -13.5
00:50 1017 30.03 846 24.98 -21.1 -6 70 -25.2 -13.4
00:55 1017 30.03 846 24.98 -21.2 -6.1 71 -25.1 -13.1
01:00 1017 30.03 846 24.98 -21.2 -6.2 72 -25 -13.1
01:05 1017 30.03 846 24.98 -21.2 -6.2 72 -25 -13
01:10 1017 30.03 846 24.98 -21.3 -6.4 73 -25 -13
01:15 1017 30.03 846 24.98 -21.4 -6.4 72 -25.2 -13.3
01:20 1017 30.03 846 24.98 -21.3 -6.4 71 -25.2 -13.4
01:25 1017 30.03 846 24.98 -21.3 -6.3 71 -25.3 -13.5
01:30 1017 30.03 846 24.98 -21.3 -6.4 71 -25.3 -13.5
01:35 1017 30.03 846 24.98 -21.3 -6.4 72 -25.2 -13.3
01:40 1017 30.03 846 24.98 -21.3 -6.3 71 -25.3 -13.5
01:45 1017 30.03 846 24.98 -21.3 -6.3 70 -25.4 -13.7
01:50 1017 30.03 846 24.98 -21.3 -6.3 70 -25.4 -13.7
01:55 1017 30.03 846 24.98 -21.3 -6.4 71 -25.3 -13.6
02:00 1017 30.03 846 24.98 -21.4 -6.5 71 -25.3 -13.6
02:05 1017 30.03 846 24.98 -21.5 -6.6 72 -25.2 -13.4
02:10 1017 30.03 846 24.98 -21.5 -6.7 72 -25.3 -13.5
02:15 1017 30.03 846 24.98 -21.5 -6.7 72 -25.3 -13.5
02:20 1017 30.03 846 24.98 -21.5 -6.7 72 -25.3 -13.5
02:25 1017 30.03 846 24.98 -21.6 -6.8 73 -25.3 -13.5
02:30 1017 30.03 846 24.98 -21.6 -6.9 74 -25.1 -13.2
02:35 1017 30.03 846 24.98 -21.7 -7 74 -25.2 -13.3
02:40 1017 30.03 846 24.98 -21.7 -7.1 74 -25.2 -13.3
02:45 1017 30.03 846 24.98 -21.8 -7.2 74 -25.2 -13.4
02:50 1017 30.03 846 24.98 -21.8 -7.2 73 -25.3 -13.6
02:55 1017 30.03 846 24.98 -21.8 -7.2 73 -25.5 -13.8
03:00 1017 30.03 846 24.98 -21.8 -7.3 73 -25.5 -13.8
03:05 1017 30.03 846 24.98 -21.9 -7.4 72 -25.7 -14.2
03:10 1017 30.03 846 24.98 -21.9 -7.5 73 -25.6 -14.1
03:15 1017 30.03 846 24.98 -22 -7.5 72 -25.8 -14.4
03:20 1017 30.03 846 24.98 -22 -7.7 72 -25.8 -14.4
03:25 1017 30.03 846 24.98 -22.1 -7.7 71 -25.9 -14.7
03:30 1017 30.03 846 24.98 -22.1 -7.8 71 -26 -14.9
03:35 1017 30.03 846 24.98 -22.2 -7.9 70 -26.2 -15.2
03:40 1017 30.03 846 24.98 -22.2 -7.9 69 -26.4 -15.5
03:45 1017 30.03 846 24.98 -22.2 -7.9 69 -26.4 -15.6
03:50 1017 30.03 846 24.98 -22.2 -8 68 -26.6 -15.8
03:55 1016 30 846 24.98 -22.2 -8 69 -26.5 -15.8
04:00 1016 30 846 24.98 -22.3 -8.1 69 -26.6 -15.9
04:05 1016 30 846 24.98 -22.3 -8.1 68 -26.6 -15.9
04:10 1016 30 846 24.98 -22.3 -8.1 68 -26.7 -16.1
04:15 1016 30 846 24.98 -22.3 -8.2 67 -26.9 -16.4
04:20 1016 30 846 24.98 -22.4 -8.2 67 -26.9 -16.4
04:25 1016 30 845 24.95 -22.4 -8.3 68 -26.8 -16.3
04:30 1016 30 845 24.95 -22.5 -8.4 68 -26.9 -16.4
04:35 1016 30 845 24.95 -22.5 -8.5 67 -27 -16.6
04:40 1016 30 845 24.95 -22.5 -8.5 68 -26.9 -16.5
04:45 1016 30 845 24.95 -22.6 -8.6 68 -27 -16.5
04:50 1016 30 845 24.95 -22.7 -8.8 68 -27 -16.6
04:55 1016 30 845 24.95 -22.7 -8.8 68 -27 -16.7
05:00 1016 30 845 24.95 -22.8 -9 68 -27.1 -16.7
05:05 1016 30 845 24.95 -22.8 -9 68 -27.1 -16.8
05:10 1016 30 845 24.95 -22.8 -9 68 -27.1 -16.8
05:15 1016 30 845 24.95 -22.8 -9 69 -27 -16.7
05:20 1016 30 845 24.95 -22.8 -9 69 -27.1 -16.7
05:25 1016 30 845 24.95 -22.8 -9.1 69 -27 -16.7
05:30 1016 30 845 24.95 -22.8 -9 68 -27.1 -16.9
05:35 1016 30 845 24.95 -22.8 -9 68 -27.1 -16.8
05:40 1016 30 845 24.95 -22.8 -9 69 -27.1 -16.7
05:45 1016 30 845 24.95 -22.9 -9.1 68 -27.2 -17
05:50 1016 30 845 24.95 -22.9 -9.1 67 -27.4 -17.2
05:55 1016 30 845 24.95 -22.8 -9.1 67 -27.3 -17.2
06:00 1016 30 845 24.95 -22.9 -9.2 67 -27.4 -17.3
06:05 1015 29.97 845 24.95 -22.9 -9.1 67 -27.4 -17.3
06:10 1016 30 845 24.95 -22.9 -9.3 68 -27.3 -17.1
06:15 1016 30 845 24.95 -23 -9.5 68 -27.4 -17.3
06:20 1016 30 845 24.95 -23.1 -9.5 67 -27.6 -17.7
06:25 1016 30 845 24.95 -23.1 -9.5 66 -27.7 -17.9
06:30 1016 30 845 24.95 -23.1 -9.5 65 -27.9 -18.3
06:35 1016 30 845 24.95 -23 -9.4 65 -27.8 -18.1
06:40 1016 30 845 24.95 -23 -9.5 66 -27.8 -18
06:45 1016 30 845 24.95 -23.1 -9.5 67 -27.7 -17.8
06:50 1016 30 845 24.95 -23.1 -9.6 67 -27.7 -17.8
06:55 1016 30 845 24.95 -23.1 -9.6 67 -27.7 -17.8
07:00 1016 30 845 24.95 -23.2 -9.7 68 -27.5 -17.6
07:05 1016 30 845 24.95 -23.2 -9.7 67 -27.6 -17.8
07:10 1016 30 845 24.95 -23.2 -9.8 67 -27.7 -17.9
07:15 1016 30 845 24.95 -23.2 -9.8 67 -27.7 -17.9
07:20 1016 30 845 24.95 -23.2 -9.8 67 -27.8 -18
07:25 1016 30 845 24.95 -23.3 -9.9 67 -27.9 -18.2
07:30 1016 30 845 24.95 -23.3 -9.9 67 -27.9 -18.1
07:35 1016 30 845 24.95 -23.4 -10 67 -28 -18.3
07:40 1016 30 845 24.95 -23.4 -10.2 66 -28.1 -18.5
07:45 1015 29.97 845 24.95 -23.4 -10.2 66 -28.1 -18.6
07:50 1015 29.97 845 24.95 -23.5 -10.2 65 -28.3 -18.9
07:55 1015 29.97 845 24.95 -23.5 -10.3 65 -28.4 -19.1
08:00 1015 29.97 844 24.92 -23.5 -10.3 64 -28.5 -19.2
08:05 1015 29.97 844 24.92 -23.5 -10.3 65 -28.4 -19.1
08:10 1015 29.97 844 24.92 -23.5 -10.3 65 -28.5 -19.2
08:15 1015 29.97 844 24.92 -23.5 -10.4 64 -28.5 -19.3
08:20 1015 29.97 844 24.92 -23.5 -10.4 65 -28.5 -19.2
08:25 1015 29.97 844 24.92 -23.5 -10.3 64 -28.5 -19.3
08:30 1015 29.97 844 24.92 -23.5 -10.2 64 -28.6 -19.5
08:35 1015 29.97 844 24.92 -23.4 -10.1 63 -28.6 -19.5
08:40 1015 29.97 844 24.92 -23.4 -10.1 63 -28.5 -19.4
08:45 1015 29.97 844 24.92 -23.4 -10.1 63 -28.5 -19.3
08:50 1015 29.97 844 24.92 -23.4 -10.1 63 -28.6 -19.5
08:55 1015 29.97 844 24.92 -23.4 -10.1 63 -28.7 -19.6
09:00 1015 29.97 844 24.92 -23.3 -9.9 63 -28.5 -19.4
09:05 1015 29.97 844 24.92 -23.2 -9.8 61 -28.7 -19.7
09:10 1015 29.97 844 24.92 -23.2 -9.7 61 -28.8 -19.8
09:15 1015 29.97 844 24.92 -23.2 -9.7 61 -28.7 -19.7
09:20 1015 29.97 844 24.92 -23.1 -9.7 60 -28.8 -19.9
09:25 1015 29.97 844 24.92 -23.1 -9.5 60 -28.8 -19.8
09:30 1015 29.97 844 24.92 -23 -9.4 60 -28.8 -19.9
09:35 1015 29.97 844 24.92 -22.9 -9.2 60 -28.7 -19.6
09:40 1015 29.97 844 24.92 -23 -9.3 59 -28.8 -19.9
09:45 1015 29.97 844 24.92 -22.9 -9.1 59 -28.8 -19.9
09:50 1015 29.97 844 24.92 -22.8 -9 59 -28.7 -19.7
09:55 1015 29.97 844 24.92 -22.7 -8.8 59 -28.6 -19.4
10:00 1015 29.97 844 24.92 -22.6 -8.6 60 -28.4 -19.1
10:05 1015 29.97 844 24.92 -22.6 -8.6 60 -28.4 -19.1
10:10 1014 29.94 844 24.92 -22.4 -8.4 59 -28.4 -19.1
10:15 1014 29.94 844 24.92 -22.4 -8.3 58 -28.5 -19.4
10:20 1014 29.94 844 24.92 -22.4 -8.2 59 -28.4 -19.2
10:25 1014 29.94 844 24.92 -22.3 -8.1 58 -28.4 -19.2
10:30 1014 29.94 843 24.89 -22.3 -8.2 58 -28.4 -19.2
10:35 1014 29.94 843 24.89 -22.1 -7.8 57 -28.5 -19.2
10:40 1014 29.94 843 24.89 -22.2 -7.9 57 -28.5 -19.4
10:45 1014 29.94 843 24.89 -22 -7.6 57 -28.5 -19.2
10:50 1014 29.94 843 24.89 -22 -7.7 56 -28.6 -19.4
10:55 1014 29.94 843 24.89 -22 -7.6 56 -28.6 -19.4
11:00 1014 29.94 843 24.89 -22 -7.7 57 -28.5 -19.3
11:05 1014 29.94 843 24.89 -21.9 -7.3 55 -28.6 -19.4
11:10 1014 29.94 843 24.89 -21.8 -7.3 56 -28.4 -19.1
11:15 1014 29.94 843 24.89 -21.4 -6.6 55 -28.1 -18.7
11:20 1014 29.94 843 24.89 -21.5 -6.7 58 -27.8 -18
11:25 1014 29.94 843 24.89 -21.2 -6.2 60 -27.1 -16.8
11:30 1014 29.94 843 24.89 -21.1 -5.9 63 -26.3 -15.4
11:35 1014 29.94 843 24.89 -20.6 -5 63 -25.8 -14.5
11:40 1014 29.94 843 24.89 -19.6 -3.2 54 -26.7 -16
11:45 1014 29.94 843 24.89 -19.7 -3.5 62 -25.2 -13.4
11:50 1014 29.94 843 24.89 -19.5 -3 63 -24.9 -12.8
11:55 1014 29.94 843 24.89 -19.8 -3.7 64 -25 -12.9
12:00 1014 29.94 843 24.89 -20.4 -4.8 63 -25.8 -14.4
12:05 1013 29.91 843 24.89 -20.3 -4.6 67 -25 -12.9
12:10 1013 29.91 843 24.89 -20.6 -5.1 68 -25 -13.1
12:15 1013 29.91 842 24.86 -20.3 -4.5 66 -25.2 -13.3
12:20 1013 29.91 842 24.86 -20.5 -4.9 67 -25.2 -13.4
12:25 1013 29.91 842 24.86 -20.6 -5.1 66 -25.3 -13.6
12:30 1013 29.91 842 24.86 -20.6 -5.1 66 -25.4 -13.6
12:35 1013 29.91 842 24.86 -20.8 -5.4 66 -25.5 -13.9
12:40 1013 29.91 842 24.86 -20.9 -5.7 66 -25.7 -14.2
12:45 1013 29.91 842 24.86 -21.3 -6.3 71 -25.2 -13.4
12:50 1013 29.91 842 24.86 -20.2 -4.3 64 -25.4 -13.8
12:55 1013 29.91 842 24.86 -20.6 -5.1 65 -25.5 -13.9
13:00 1013 29.91 842 24.86 -19.9 -3.9 62 -25.4 -13.7
13:05 1012 29.88 842 24.86 -19.1 -2.3 60 -25 -13
13:10 1012 29.88 842 24.86 -19.8 -3.7 63 -25.2 -13.4
13:15 1012 29.88 842 24.86 -20.1 -4.2 62 -25.6 -14
13:20 1012 29.88 842 24.86 -19.8 -3.6 65 -24.7 -12.5
13:25 1012 29.88 841 24.83 -20.4 -4.6 66 -25.2 -13.3
13:30 1012 29.88 841 24.83 -19.9 -3.7 65 -24.9 -12.9
13:35 1012 29.88 841 24.83 -19.8 -3.7 64 -25.1 -13.1
13:40 1012 29.88 841 24.83 -19.2 -2.5 61 -24.9 -12.8
13:45 1012 29.88 841 24.83 -19.4 -2.8 59 -25.4 -13.8
13:50 1012 29.88 841 24.83 -20.6 -5.1 64 -25.7 -14.3
13:55 1012 29.88 841 24.83 -20.5 -4.9 64 -25.6 -14.1
14:00 1012 29.88 841 24.83 -21 -5.8 65 -26 -14.8
14:05 1012 29.88 841 24.83 -20.4 -4.8 63 -25.7 -14.3
14:10 1012 29.88 841 24.83 -19.2 -2.6 60 -25.1 -13.2
14:15 1012 29.88 841 24.83 -19.8 -3.7 64 -25 -13.1
14:20 1012 29.88 841 24.83 -20.5 -4.9 64 -25.6 -14.1
14:25 1012 29.88 841 24.83 -20.3 -4.5 63 -25.7 -14.3
14:30 1012 29.88 841 24.83 -20 -4 65 -25 -13.1
14:35 1012 29.88 841 24.83 -20.5 -4.9 65 -25.5 -13.9
14:40 1012 29.88 841 24.83 -20.9 -5.7 68 -25.4 -13.7
14:45 1012 29.88 841 24.83 -20.3 -4.5 64 -25.4 -13.8
14:50 1012 29.88 841 24.83 -19.4 -2.9 61 -25.1 -13.2
14:55 1012 29.88 841 24.83 -20.1 -4.2 68 -24.7 -12.4
15:00 1012 29.88 841 24.83 -20.8 -5.5 69 -25.2 -13.3
15:05 1012 29.88 841 24.83 -20.1 -4.2 63 -25.5 -14
15:10 1012 29.88 841 24.83 -20.4 -4.6 63 -25.6 -14.1
15:15 1012 29.88 841 24.83 -20.9 -5.6 65 -25.8 -14.4
15:20 1012 29.88 841 24.83 -21.1 -6 68 -25.5 -13.9
15:25 1011 29.85 841 24.83 -20.7 -5.3 65 -25.8 -14.4
15:30 1011 29.85 841 24.83 -21 -5.8 66 -25.7 -14.3
15:35 1012 29.88 841 24.83 -21.2 -6.2 68 -25.7 -14.2
15:40 1011 29.85 841 24.83 -21.1 -5.9 69 -25.3 -13.6
15:45 1011 29.85 841 24.83 -20.7 -5.3 67 -25.4 -13.7
15:50 1011 29.85 841 24.83 -20.6 -5.1 66 -25.4 -13.8
15:55 1011 29.85 841 24.83 -20.3 -4.5 61 -26 -14.8
16:00 1011 29.85 840 24.81 -20.8 -5.5 65 -25.8 -14.4
16:05 1011 29.85 840 24.81 -20.5 -4.9 66 -25.4 -13.7
16:10 1011 29.85 840 24.81 -20.8 -5.4 65 -25.8 -14.4
16:15 1011 29.85 840 24.81 -20.9 -5.6 67 -25.6 -14.1
16:20 1011 29.85 840 24.81 -21 -5.7 68 -25.4 -13.7
16:25 1011 29.85 840 24.81 -21.1 -5.9 66 -25.9 -14.7
16:30 1011 29.85 840 24.81 -21.6 -6.8 69 -25.9 -14.6
16:35 1011 29.85 840 24.81 -22.3 -8.1 70 -26.4 -15.4
16:40 1011 29.85 840 24.81 -22.5 -8.6 72 -26.3 -15.3
16:45 1011 29.85 840 24.81 -22.6 -8.6 70 -26.6 -16
16:50 1011 29.85 840 24.81 -22.8 -9 72 -26.5 -15.8
16:55 1011 29.85 840 24.81 -22.8 -9.1 68 -27.2 -17
17:00 1011 29.85 840 24.81 -22.9 -9.2 65 -27.8 -18.1
17:05 1011 29.85 840 24.81 -22.9 -9.3 65 -27.7 -17.9
17:10 1011 29.85 840 24.81 -23 -9.4 66 -27.8 -18
17:15 1011 29.85 840 24.81 -23 -9.4 65 -27.9 -18.2
17:20 1011 29.85 840 24.81 -23 -9.4 65 -27.9 -18.1
17:25 1011 29.85 840 24.81 -23 -9.4 66 -27.8 -18
17:30 1011 29.85 840 24.81 -23.1 -9.5 66 -27.8 -18.1
17:35 1011 29.85 840 24.81 -23.1 -9.5 66 -27.8 -18
17:40 1011 29.85 840 24.81 -23.2 -9.7 67 -27.7 -17.9
17:45 1011 29.85 840 24.81 -23.3 -9.9 68 -27.7 -17.9
17:50 1011 29.85 840 24.81 -23.3 -9.9 68 -27.6 -17.8
17:55 1011 29.85 840 24.81 -23.3 -9.9 68 -27.6 -17.6
18:00 1011 29.85 840 24.81 -23.3 -9.9 68 -27.7 -17.8
18:05 1011 29.85 840 24.81 -23.3 -10 69 -27.6 -17.6
18:10 1011 29.85 840 24.81 -23.3 -10 68 -27.6 -17.8
18:15 1011 29.85 840 24.81 -23.4 -10 68 -27.7 -17.8
18:20 1011 29.85 840 24.81 -23.3 -10 68 -27.8 -18
18:25 1011 29.85 840 24.81 -23.3 -9.9 68 -27.7 -17.9
18:30 1011 29.85 840 24.81 -23.3 -10 68 -27.7 -17.9
18:35 1011 29.85 840 24.81 -23.4 -10 68 -27.7 -17.8
18:40 1011 29.85 840 24.81 -23.3 -10 68 -27.6 -17.8